createdAt,value
2023-02-27T00:00:42.116Z,20.27
2023-02-27T00:01:42.186Z,20.27
2023-02-27T00:02:42.277Z,20.27
2023-02-27T00:03:42.326Z,20.27
2023-02-27T00:04:42.391Z,20.27
2023-02-27T00:05:42.458Z,20.27
2023-02-27T00:06:42.509Z,20.28
2023-02-27T00:07:42.566Z,20.27
2023-02-27T00:08:42.544Z,20.27
2023-02-27T00:09:42.525Z,20.27
2023-02-27T00:10:42.546Z,20.27
2023-02-27T00:11:42.621Z,20.27
2023-02-27T00:12:42.667Z,20.27
2023-02-27T00:13:42.707Z,20.27
2023-02-27T00:14:42.753Z,20.27
2023-02-27T00:15:42.828Z,20.27
2023-02-27T00:16:42.827Z,20.26
2023-02-27T00:17:42.852Z,20.27
2023-02-27T00:18:42.911Z,20.27
2023-02-27T00:19:42.975Z,20.27
2023-02-27T00:20:43.025Z,20.27
2023-02-27T00:21:43.079Z,20.27
2023-02-27T01:19:45.916Z,20.27
2023-02-27T01:20:45.969Z,20.26
2023-02-27T01:22:46.088Z,20.26
2023-02-27T01:23:46.132Z,20.26
2023-02-27T01:24:46.187Z,20.26
2023-02-27T01:25:46.212Z,20.25
2023-02-27T01:30:46.518Z,20.26
2023-02-27T01:31:46.590Z,20.25
2023-02-27T01:32:46.653Z,20.25
2023-02-27T01:33:46.616Z,20.25
2023-02-27T01:34:46.693Z,20.26
2023-02-27T01:35:46.741Z,20.26
2023-02-27T01:36:46.815Z,20.26
2023-02-27T01:37:46.850Z,20.26
2023-02-27T01:38:46.849Z,20.26
2023-02-27T01:39:46.858Z,20.26
2023-02-27T01:40:46.885Z,20.26
2023-02-27T01:41:46.916Z,20.26
2023-02-27T01:42:46.980Z,20.26
2023-02-27T01:43:47.058Z,20.26
2023-02-27T01:55:47.671Z,20.26
2023-02-27T01:56:47.684Z,20.26
2023-02-27T01:57:47.712Z,20.26
2023-02-27T01:58:47.712Z,20.26
2023-02-27T01:59:47.730Z,20.26
2023-02-27T02:00:47.770Z,20.26
2023-02-27T02:01:47.736Z,20.26
2023-02-27T02:02:47.712Z,20.26
2023-02-27T02:03:47.710Z,20.25
2023-02-27T02:04:47.713Z,20.26
2023-02-27T02:05:47.716Z,20.26
2023-02-27T02:06:47.715Z,20.26
2023-02-27T02:07:47.712Z,20.26
2023-02-27T02:08:47.744Z,20.26
2023-02-27T02:09:47.796Z,20.26
2023-02-27T02:10:47.822Z,20.26
2023-02-27T02:11:47.868Z,20.26
2023-02-27T02:12:47.910Z,20.26
2023-02-27T02:13:47.969Z,20.26
2023-02-27T02:14:47.999Z,20.25
2023-02-27T02:15:48.043Z,20.26
2023-02-27T02:16:48.128Z,20.26
2023-02-27T02:17:48.122Z,20.26
2023-02-27T02:18:48.139Z,20.26
2023-02-27T02:19:48.213Z,20.25
2023-02-27T02:20:48.213Z,20.25
2023-02-27T02:21:48.228Z,20.26
2023-02-27T02:22:48.254Z,20.25
2023-02-27T02:23:48.305Z,20.25
2023-02-27T02:24:48.349Z,20.25
2023-02-27T02:25:48.384Z,20.25
2023-02-27T02:26:48.417Z,20.25
2023-02-27T02:27:48.449Z,20.25
2023-02-27T02:28:48.512Z,20.24
2023-02-27T02:29:48.575Z,20.26
2023-02-27T02:30:48.701Z,20.25
2023-02-27T02:31:48.818Z,20.25
2023-02-27T02:32:48.636Z,20.26
2023-02-27T02:33:48.659Z,20.26
2023-02-27T02:34:48.680Z,20.25
2023-02-27T02:35:48.707Z,20.25
2023-02-27T02:36:48.744Z,20.25
2023-02-27T02:37:48.768Z,20.25
2023-02-27T02:38:48.779Z,20.25
2023-02-27T02:39:48.791Z,20.25
2023-02-27T02:40:48.827Z,20.25
2023-02-27T02:41:48.891Z,20.25
2023-02-27T02:42:48.913Z,20.25
2023-02-27T02:43:48.953Z,20.25
2023-02-27T02:44:49.015Z,20.25
2023-02-27T02:45:49.058Z,20.25
2023-02-27T02:46:49.061Z,20.25
2023-02-27T02:47:49.077Z,20.25
2023-02-27T02:48:49.105Z,20.25
2023-02-27T02:49:49.122Z,20.25
2023-02-27T02:50:49.175Z,20.25
2023-02-27T02:51:49.237Z,20.25
2023-02-27T02:52:49.293Z,20.25
2023-02-27T02:53:49.293Z,20.25
2023-02-27T02:54:49.332Z,20.25
2023-02-27T02:55:49.344Z,20.26
2023-02-27T02:56:49.404Z,20.25
2023-02-27T02:57:49.421Z,20.25
2023-02-27T02:58:49.477Z,20.25
2023-02-27T02:59:49.524Z,20.25
2023-02-27T03:00:49.537Z,20.25
2023-02-27T03:01:49.572Z,20.25
2023-02-27T03:02:49.584Z,20.25
2023-02-27T03:03:49.617Z,20.25
2023-02-27T03:04:49.647Z,20.26
2023-02-27T03:05:49.704Z,20.25
2023-02-27T03:06:49.737Z,20.25
2023-02-27T03:07:49.846Z,20.24
2023-02-27T03:08:49.756Z,20.25
2023-02-27T03:09:49.773Z,20.25
2023-02-27T03:10:49.803Z,20.26
2023-02-27T03:11:49.813Z,20.25
2023-02-27T03:12:49.816Z,20.25
2023-02-27T05:36:55.937Z,20.62
2023-02-27T05:37:55.996Z,20.61
2023-02-27T05:38:56.042Z,20.62
2023-02-27T05:39:56.094Z,20.63
2023-02-27T05:40:56.148Z,20.63
2023-02-27T05:41:56.206Z,20.61
2023-02-27T05:42:56.256Z,20.62
2023-02-27T05:43:56.303Z,20.61
2023-02-27T05:44:56.366Z,20.62
2023-02-27T05:45:56.423Z,20.61
2023-02-27T05:46:56.468Z,20.61
2023-02-27T05:47:56.521Z,20.61
2023-02-27T05:48:56.583Z,20.61
2023-02-27T05:49:56.633Z,20.62
2023-02-27T05:50:56.683Z,20.61
2023-02-27T05:51:57.262Z,20.62
2023-02-27T05:52:56.790Z,20.62
2023-02-27T05:53:56.844Z,20.61
2023-02-27T05:54:56.902Z,20.61
2023-02-27T06:04:57.442Z,20.61
2023-02-27T06:05:57.513Z,20.61
2023-02-27T06:06:57.553Z,20.61
2023-02-27T06:07:57.612Z,20.60
2023-02-27T06:08:57.678Z,20.61
2023-02-27T06:09:57.715Z,20.61
2023-02-27T06:10:57.768Z,20.61
2023-02-27T06:11:57.830Z,20.61
2023-02-27T06:12:57.899Z,20.61
2023-02-27T06:13:57.938Z,20.61
2023-02-27T06:14:58.004Z,20.61
2023-02-27T06:15:58.061Z,20.61
2023-02-27T06:16:58.131Z,20.61
2023-02-27T06:20:58.322Z,20.61
2023-02-27T09:30:06.062Z,20.73
2023-02-27T09:41:05.949Z,20.75
2023-02-27T09:42:05.987Z,20.75
2023-02-27T09:43:06.182Z,20.75
2023-02-27T09:44:06.087Z,20.76
2023-02-27T09:45:06.278Z,20.76
2023-02-27T09:46:06.236Z,20.76
2023-02-27T09:47:06.294Z,20.76
2023-02-27T09:48:06.254Z,20.76
2023-02-27T09:49:06.296Z,20.77
2023-02-27T09:50:06.374Z,20.76
2023-02-27T09:51:06.382Z,20.77
2023-02-27T09:52:06.425Z,20.78
2023-02-27T09:53:06.464Z,20.78
2023-02-27T09:54:06.514Z,20.79
2023-02-27T09:55:06.555Z,20.79
2023-02-27T09:56:06.663Z,20.79
2023-02-27T09:57:06.649Z,20.79
2023-02-27T09:58:06.714Z,20.81
2023-02-27T09:59:06.740Z,20.80
2023-02-27T10:00:06.785Z,20.80
2023-02-27T10:01:06.829Z,20.81
2023-02-27T10:02:06.914Z,20.81
2023-02-27T10:03:06.968Z,20.81
2023-02-27T10:04:07.591Z,20.81
2023-02-27T10:05:07.005Z,20.81
2023-02-27T10:06:07.309Z,20.82
2023-02-27T10:07:07.084Z,20.82
2023-02-27T10:08:07.128Z,20.83
2023-02-27T10:09:07.167Z,20.84
2023-02-27T10:10:07.220Z,20.85
2023-02-27T10:11:07.246Z,20.85
2023-02-27T10:12:07.637Z,20.85
2023-02-27T10:13:07.326Z,20.85
2023-02-27T10:14:07.363Z,20.86
2023-02-27T10:15:08.024Z,20.86
2023-02-27T10:16:07.441Z,20.87
2023-02-27T10:17:07.537Z,20.87
2023-02-27T10:18:20.164Z,20.87
2023-02-27T10:19:07.506Z,20.88
2023-02-27T10:20:07.465Z,20.88
2023-02-27T10:21:07.462Z,20.88
2023-02-27T10:22:07.443Z,20.88
2023-02-27T10:23:07.956Z,20.87
2023-02-27T10:24:07.760Z,20.87
2023-02-27T10:25:18.116Z,20.87
2023-02-27T10:26:08.341Z,20.87
2023-02-27T10:27:07.377Z,20.88
2023-02-27T10:28:07.291Z,20.88
2023-02-27T10:29:07.279Z,20.89
2023-02-27T10:30:07.520Z,20.90
2023-02-27T10:31:07.334Z,20.90
2023-02-27T10:32:07.289Z,20.90
2023-02-27T10:33:07.203Z,20.91
2023-02-27T10:34:07.193Z,20.91
2023-02-27T10:35:07.167Z,20.91
2023-02-27T10:36:07.172Z,20.91
2023-02-27T10:37:07.138Z,20.91
2023-02-27T10:38:07.176Z,20.91
2023-02-27T10:39:07.243Z,20.92
2023-02-27T10:40:07.245Z,20.92
2023-02-27T10:41:07.276Z,20.92
2023-02-27T10:42:08.046Z,20.92
2023-02-27T10:43:07.343Z,20.92
2023-02-27T10:44:07.382Z,20.92
2023-02-27T10:45:07.418Z,20.93
2023-02-27T10:46:07.476Z,20.93
2023-02-27T10:47:07.478Z,20.94
2023-02-27T10:48:07.513Z,20.93
2023-02-27T10:49:07.541Z,20.94
2023-02-27T10:50:07.577Z,20.94
2023-02-27T10:51:07.614Z,20.93
2023-02-27T10:52:07.655Z,20.93
2023-02-27T10:53:08.046Z,20.93
2023-02-27T10:54:07.716Z,20.92
2023-02-27T10:55:07.758Z,20.92
2023-02-27T10:56:07.784Z,20.92
2023-02-27T10:57:07.803Z,20.91
2023-02-27T10:58:07.838Z,20.90
2023-02-27T10:59:07.889Z,20.90
2023-02-27T11:00:07.929Z,20.90
2023-02-27T11:01:08.200Z,20.91
2023-02-27T11:02:08.007Z,20.92
2023-02-27T11:03:08.027Z,20.91
2023-02-27T11:04:09.085Z,20.91
2023-02-27T11:05:08.094Z,20.91
2023-02-27T11:06:08.127Z,20.92
2023-02-27T11:07:08.158Z,20.92
2023-02-27T11:08:08.191Z,20.92
2023-02-27T11:09:08.223Z,20.91
2023-02-27T11:10:08.262Z,20.91
2023-02-27T11:11:08.298Z,20.91
2023-02-27T11:12:08.330Z,20.91
2023-02-27T11:13:08.365Z,20.92
2023-02-27T11:14:08.396Z,20.91
2023-02-27T11:15:08.443Z,20.92
2023-02-27T11:16:08.501Z,20.92
2023-02-27T11:17:08.499Z,20.91
2023-02-27T11:18:08.522Z,20.91
2023-02-27T11:19:08.560Z,20.91
2023-02-27T11:20:08.597Z,20.91
2023-02-27T11:21:08.641Z,20.92
2023-02-27T11:22:08.672Z,20.92
2023-02-27T11:23:08.708Z,20.93
2023-02-27T11:24:08.748Z,20.94
2023-02-27T11:25:08.816Z,20.94
2023-02-27T11:26:08.838Z,20.94
2023-02-27T11:27:08.850Z,20.94
2023-02-27T11:28:08.891Z,20.94
2023-02-27T11:29:08.928Z,20.95
2023-02-27T11:30:08.958Z,20.94
2023-02-27T11:31:09.029Z,20.95
2023-02-27T11:32:09.040Z,20.95
2023-02-27T11:33:09.053Z,20.94
2023-02-27T11:34:09.082Z,20.93
2023-02-27T11:35:09.119Z,20.93
2023-02-27T11:36:09.197Z,20.93
2023-02-27T11:37:09.190Z,20.93
2023-02-27T11:38:09.241Z,20.93
2023-02-27T11:39:09.274Z,20.93
2023-02-27T11:40:09.308Z,20.93
2023-02-27T11:41:09.338Z,20.92
2023-02-27T11:42:09.362Z,20.93
2023-02-27T11:43:09.400Z,20.93
2023-02-27T11:44:09.425Z,20.93
2023-02-27T11:45:09.464Z,20.93
2023-02-27T11:46:47.341Z,20.94
2023-02-27T11:47:10.489Z,20.93
2023-02-27T11:48:09.443Z,20.94
2023-02-27T11:49:09.417Z,20.93
2023-02-27T11:50:09.396Z,20.93
2023-02-27T11:51:09.382Z,20.92
2023-02-27T11:52:09.367Z,20.92
2023-02-27T11:53:09.335Z,20.91
2023-02-27T11:54:09.316Z,20.91
2023-02-27T11:55:09.293Z,20.90
2023-02-27T11:56:09.279Z,20.90
2023-02-27T11:57:09.259Z,20.89
2023-02-27T11:58:09.265Z,20.89
2023-02-27T11:59:10.058Z,20.89
2023-02-27T12:00:09.341Z,20.88
2023-02-27T12:01:09.360Z,20.87
2023-02-27T12:02:12.075Z,20.87
2023-02-27T12:03:09.384Z,20.88
2023-02-27T12:04:09.375Z,20.89
2023-02-27T16:11:15.949Z,20.70
2023-02-27T16:12:15.987Z,20.70
2023-02-27T16:13:16.041Z,20.69
2023-02-27T16:14:16.082Z,20.69
2023-02-27T16:15:16.133Z,20.69
2023-02-27T16:16:16.181Z,20.69
2023-02-27T16:17:16.217Z,20.69
2023-02-27T16:18:16.268Z,20.69
2023-02-27T16:19:16.316Z,20.69
2023-02-27T16:20:16.356Z,20.69
2023-02-27T16:21:16.398Z,20.69
2023-02-27T16:22:16.462Z,20.69
2023-02-27T16:23:16.495Z,20.69
2023-02-27T16:24:16.541Z,20.69
2023-02-27T16:25:17.136Z,20.68
2023-02-27T16:26:16.652Z,20.67
2023-02-27T16:27:16.698Z,20.68
2023-02-27T16:28:16.754Z,20.68
2023-02-27T16:29:16.809Z,20.68
2023-02-27T16:30:16.868Z,20.67
2023-02-27T16:31:16.918Z,20.67
2023-02-27T16:32:17.132Z,20.66
2023-02-27T16:33:17.023Z,20.67
2023-02-27T16:34:17.073Z,20.67
2023-02-27T16:35:17.114Z,20.66
2023-02-27T16:36:17.130Z,20.66
2023-02-27T16:37:17.155Z,20.66
2023-02-27T16:38:17.155Z,20.66
2023-02-27T16:39:17.167Z,20.66
2023-02-27T16:40:17.260Z,20.66
2023-02-27T16:41:17.391Z,20.65
2023-02-27T16:42:17.215Z,20.66
2023-02-27T16:43:17.205Z,20.65
2023-02-27T16:44:17.202Z,20.65
2023-02-27T16:45:17.218Z,20.65
2023-02-27T16:46:17.258Z,20.65
2023-02-27T16:47:17.230Z,20.64
2023-02-27T16:48:17.249Z,20.64
2023-02-27T16:49:20.008Z,20.64
2023-02-27T16:50:17.230Z,20.63
2023-02-27T16:51:17.214Z,20.63
2023-02-27T16:52:17.198Z,20.63
2023-02-27T16:53:17.191Z,20.63
2023-02-27T16:54:17.169Z,20.63
2023-02-27T16:55:17.150Z,20.63
2023-02-27T16:56:19.637Z,20.62
2023-02-27T16:57:18.113Z,20.62
2023-02-27T16:58:17.102Z,20.62
2023-02-27T16:59:17.084Z,20.62
2023-02-27T17:00:17.068Z,20.62
2023-02-27T17:01:17.201Z,20.63
2023-02-27T17:02:17.018Z,20.62
2023-02-27T17:03:16.994Z,20.62
2023-02-27T17:04:25.616Z,20.62
2023-02-27T17:05:17.964Z,20.61
2023-02-27T17:06:16.951Z,20.61
2023-02-27T17:07:16.960Z,20.62
2023-02-27T17:08:16.957Z,20.61
2023-02-27T17:09:16.918Z,20.61
2023-02-27T17:10:16.898Z,20.61
2023-02-27T17:11:16.877Z,20.60
2023-02-27T17:12:16.860Z,20.61
2023-02-27T17:28:16.752Z,20.59
2023-02-27T17:29:16.763Z,20.59
2023-02-27T17:30:16.778Z,20.59
2023-02-27T17:31:16.780Z,20.59
2023-02-27T17:32:16.873Z,20.58
2023-02-27T17:33:16.823Z,20.58
2023-02-27T17:34:16.853Z,20.58
2023-02-27T17:35:16.857Z,20.58
2023-02-27T17:43:16.961Z,20.58
2023-02-27T18:01:17.281Z,20.57
2023-02-27T18:02:17.259Z,20.57
2023-02-27T18:03:17.260Z,20.56
2023-02-27T18:04:17.277Z,20.56
2023-02-27T18:05:17.351Z,20.56
2023-02-27T18:06:17.318Z,20.56
2023-02-27T18:08:17.332Z,20.56
2023-02-27T18:09:17.357Z,20.57
2023-02-27T18:10:17.373Z,20.55
2023-02-27T18:11:17.383Z,20.55
2023-02-27T18:12:17.398Z,20.55
2023-02-27T18:27:17.606Z,20.55
2023-02-27T19:05:18.214Z,20.52
2023-02-27T19:06:18.239Z,20.51
2023-02-27T19:07:18.241Z,20.52
2023-02-27T19:08:18.273Z,20.52
2023-02-27T19:09:18.682Z,20.52
2023-02-27T19:10:18.302Z,20.52
2023-02-27T19:11:18.330Z,20.52
2023-02-27T19:12:18.336Z,20.52
2023-02-27T19:13:18.363Z,20.51
2023-02-27T19:14:18.380Z,20.51
2023-02-27T19:15:18.385Z,20.51
2023-02-27T19:16:18.420Z,20.52
2023-02-27T19:17:18.429Z,20.51
2023-02-27T19:18:18.435Z,20.51
2023-02-27T19:19:18.452Z,20.51
2023-02-27T19:20:18.475Z,20.51
2023-02-27T19:21:18.503Z,20.50
2023-02-27T19:22:18.514Z,20.50
2023-02-27T19:23:18.543Z,20.50
2023-02-27T19:24:18.544Z,20.50
2023-02-27T19:25:18.573Z,20.50
2023-02-27T19:26:18.603Z,20.51
2023-02-27T19:27:18.615Z,20.50
2023-02-27T19:28:18.634Z,20.50
2023-02-27T19:29:18.665Z,20.50
2023-02-27T19:30:18.689Z,20.50
2023-02-27T19:31:18.725Z,20.49
2023-02-27T19:32:18.762Z,20.49
2023-02-27T19:33:18.752Z,20.50
2023-02-27T19:34:18.775Z,20.50
2023-02-27T19:35:18.793Z,20.50
2023-02-27T19:37:18.905Z,20.51
2023-02-27T19:38:18.969Z,20.49
2023-02-27T19:39:19.010Z,20.50
2023-02-27T19:40:19.057Z,20.49
2023-02-27T20:49:22.948Z,20.47
2023-02-27T20:50:22.995Z,20.46
2023-02-27T20:51:23.064Z,20.47
2023-02-27T20:52:23.122Z,20.47
2023-02-27T20:53:24.862Z,20.46
2023-02-27T20:54:23.173Z,20.46
2023-02-27T20:55:23.166Z,20.47
2023-02-27T20:56:23.154Z,20.47
2023-02-27T20:57:23.166Z,20.46
2023-02-27T20:58:23.128Z,20.46
2023-02-27T20:59:23.123Z,20.46
2023-02-27T23:40:25.934Z,20.41
2023-02-27T23:41:25.975Z,20.40
2023-02-27T23:42:26.011Z,20.41
2023-02-27T23:43:26.018Z,20.40
2023-02-27T23:44:26.039Z,20.40
2023-02-27T23:45:26.118Z,20.40
2023-02-27T23:46:26.122Z,20.40
2023-02-27T23:47:26.163Z,20.40
2023-02-27T23:48:26.223Z,20.40
2023-02-27T23:49:26.260Z,20.40
2023-02-27T23:50:26.269Z,20.40
2023-02-27T23:51:28.450Z,20.40
2023-02-27T23:52:26.318Z,20.40
2023-02-27T23:53:26.299Z,20.40
2023-02-27T23:54:26.287Z,20.40
2023-02-27T23:55:26.284Z,20.40
2023-02-27T23:56:26.273Z,20.39
2023-02-27T23:57:26.266Z,20.40
2023-02-27T23:58:26.263Z,20.40
2023-02-27T23:59:26.246Z,20.40
